createdAt,value
2023-03-30T00:00:06.519Z,0.00
2023-03-30T00:00:37.093Z,0.00
2023-03-30T00:01:08.325Z,0.00
2023-03-30T00:01:39.370Z,0.00
2023-03-30T00:02:11.898Z,0.00
2023-03-30T00:02:42.310Z,0.00
2023-03-30T00:03:12.469Z,0.00
2023-03-30T00:03:43.605Z,0.00
2023-03-30T00:04:14.179Z,0.00
2023-03-30T00:04:45.490Z,0.00
2023-03-30T00:05:16.022Z,0.00
2023-03-30T00:05:46.833Z,0.00
2023-03-30T00:06:17.984Z,0.00
2023-03-30T00:06:49.075Z,0.00
2023-03-30T00:07:20.313Z,0.00
2023-03-30T00:07:51.470Z,0.00
2023-03-30T00:08:36.364Z,0.00
2023-03-30T00:08:53.438Z,0.00
2023-03-30T00:10:07.435Z,0.00
2023-03-30T00:13:34.531Z,0.00
2023-03-30T00:14:04.760Z,0.00
2023-03-30T00:14:36.700Z,0.00
2023-03-30T00:15:12.861Z,0.00
2023-03-30T00:15:41.736Z,0.00
2023-03-30T00:16:35.569Z,0.00
2023-03-30T00:16:43.198Z,0.00
2023-03-30T00:17:09.657Z,0.00
2023-03-30T00:18:27.015Z,0.00
2023-03-30T00:18:47.934Z,0.00
2023-03-30T00:19:44.565Z,0.00
2023-03-30T00:20:17.010Z,0.00
2023-03-30T00:20:50.036Z,0.00
2023-03-30T00:21:27.217Z,0.00
2023-03-30T00:21:48.150Z,0.00
2023-03-30T00:22:19.562Z,0.00
2023-03-30T00:22:50.733Z,0.00
2023-03-30T00:23:22.137Z,0.00
2023-03-30T00:23:55.597Z,0.00
2023-03-30T00:24:24.397Z,0.00
2023-03-30T00:25:11.558Z,0.00
2023-03-30T00:25:25.983Z,0.00
2023-03-30T00:25:57.059Z,0.00
2023-03-30T00:26:27.918Z,0.00
2023-03-30T00:26:58.827Z,0.00
2023-03-30T00:27:36.315Z,0.00
2023-03-30T00:28:05.708Z,0.00
2023-03-30T00:28:33.242Z,0.00
2023-03-30T00:29:02.726Z,0.00
2023-03-30T00:29:33.906Z,0.00
2023-03-30T00:30:05.083Z,0.00
2023-03-30T00:30:48.903Z,0.00
2023-03-30T00:31:07.456Z,0.00
2023-03-30T00:31:38.000Z,0.00
2023-03-30T00:32:09.388Z,0.00
2023-03-30T00:32:49.334Z,0.00
2023-03-30T00:33:10.237Z,0.00
2023-03-30T00:33:46.552Z,0.00
2023-03-30T00:34:12.140Z,0.00
2023-03-30T00:34:43.519Z,0.00
2023-03-30T00:35:16.150Z,0.00
2023-03-30T00:35:45.969Z,0.00
2023-03-30T00:36:18.246Z,0.00
2023-03-30T00:36:48.342Z,0.00
2023-03-30T00:37:18.769Z,0.00
2023-03-30T00:38:25.150Z,0.00
2023-03-30T00:38:36.899Z,0.00
2023-03-30T00:38:51.982Z,0.00
2023-03-30T00:39:22.369Z,0.00
2023-03-30T00:39:53.196Z,0.00
2023-03-30T00:40:24.469Z,0.00
2023-03-30T00:40:56.157Z,0.00
2023-03-30T00:41:27.733Z,0.00
2023-03-30T00:41:57.970Z,0.00
2023-03-30T00:42:28.684Z,0.00
2023-03-30T00:43:17.367Z,0.00
2023-03-30T00:43:30.219Z,0.00
2023-03-30T00:44:01.847Z,0.00
2023-03-30T00:44:32.550Z,0.00
2023-03-30T00:45:03.542Z,0.00
2023-03-30T00:45:34.150Z,0.00
2023-03-30T00:46:08.548Z,0.00
2023-03-30T00:46:39.246Z,0.00
2023-03-30T00:47:08.261Z,0.00
2023-03-30T00:47:39.523Z,0.00
2023-03-30T00:48:09.421Z,0.00
2023-03-30T00:48:40.371Z,0.00
2023-03-30T00:49:11.540Z,0.00
2023-03-30T00:49:42.420Z,0.00
2023-03-30T00:50:13.570Z,0.00
2023-03-30T00:50:44.392Z,0.00
2023-03-30T00:51:15.828Z,0.00
2023-03-30T00:51:46.934Z,0.00
2023-03-30T00:52:18.118Z,0.00
2023-03-30T00:52:48.837Z,0.00
2023-03-30T00:53:19.747Z,0.00
2023-03-30T00:53:51.821Z,0.00
2023-03-30T00:54:21.890Z,0.00
2023-03-30T00:54:52.276Z,0.00
2023-03-30T00:55:23.214Z,0.00
2023-03-30T00:55:54.335Z,0.00
2023-03-30T00:56:26.044Z,0.00
2023-03-30T00:56:57.787Z,0.00
2023-03-30T00:57:28.247Z,0.00
2023-03-30T00:58:01.652Z,0.00
2023-03-30T00:58:29.447Z,0.00
2023-03-30T00:59:00.466Z,0.00
2023-03-30T00:59:31.546Z,0.00
2023-03-30T01:00:05.527Z,0.00
2023-03-30T01:00:39.099Z,0.00
2023-03-30T01:01:11.363Z,0.00
2023-03-30T01:01:36.114Z,0.00
2023-03-30T01:02:07.811Z,0.00
2023-03-30T01:02:38.301Z,0.00
2023-03-30T01:03:30.239Z,0.00
2023-03-30T01:04:00.335Z,0.00
2023-03-30T01:04:31.440Z,0.00
2023-03-30T01:05:03.278Z,0.00
2023-03-30T01:05:33.470Z,0.00
2023-03-30T01:06:04.523Z,0.00
2023-03-30T01:06:35.518Z,0.00
2023-03-30T01:07:24.092Z,0.00
2023-03-30T01:07:38.674Z,0.00
2023-03-30T01:08:09.397Z,0.00
2023-03-30T01:08:39.276Z,0.00
2023-03-30T01:09:10.369Z,0.00
2023-03-30T01:09:41.609Z,0.00
2023-03-30T01:10:12.707Z,0.00
2023-03-30T01:10:44.185Z,0.00
2023-03-30T01:11:15.407Z,0.00
2023-03-30T01:11:45.759Z,0.00
2023-03-30T01:12:17.426Z,0.00
2023-03-30T01:12:47.745Z,0.00
2023-03-30T01:13:18.529Z,0.00
2023-03-30T01:13:49.365Z,0.00
2023-03-30T01:14:20.440Z,0.00
2023-03-30T01:14:51.564Z,0.00
2023-03-30T01:15:23.124Z,0.00
2023-03-30T01:15:54.117Z,0.00
2023-03-30T01:16:41.807Z,0.00
2023-03-30T01:16:56.965Z,0.00
2023-03-30T01:17:27.060Z,0.00
2023-03-30T01:17:59.316Z,0.00
2023-03-30T01:18:28.572Z,0.00
2023-03-30T01:18:59.530Z,0.00
2023-03-30T01:19:30.494Z,0.00
2023-03-30T01:20:01.682Z,0.00
2023-03-30T01:20:32.527Z,0.00
2023-03-30T01:21:03.395Z,0.00
2023-03-30T01:21:35.559Z,0.00
2023-03-30T01:22:06.796Z,0.00
2023-03-30T01:22:36.812Z,0.00
2023-03-30T01:23:07.860Z,0.00
2023-03-30T01:23:38.730Z,0.00
2023-03-30T01:24:09.222Z,0.00
2023-03-30T01:24:58.359Z,0.00
2023-03-30T01:25:11.928Z,0.00
2023-03-30T01:25:42.541Z,0.00
2023-03-30T01:26:15.168Z,0.00
2023-03-30T01:26:45.072Z,0.00
2023-03-30T01:27:16.175Z,0.00
2023-03-30T01:27:47.124Z,0.00
2023-03-30T01:28:17.652Z,0.00
2023-03-30T01:28:49.306Z,0.00
2023-03-30T01:29:19.716Z,0.00
2023-03-30T01:29:50.608Z,0.00
2023-03-30T01:30:29.172Z,0.00
2023-03-30T01:30:52.657Z,0.00
2023-03-30T01:31:24.608Z,0.00
2023-03-30T01:31:56.277Z,0.00
2023-03-30T01:32:26.688Z,0.00
2023-03-30T01:32:57.264Z,0.00
2023-03-30T01:33:33.403Z,0.00
2023-03-30T01:33:58.956Z,0.00
2023-03-30T01:34:29.573Z,0.00
2023-03-30T01:35:00.620Z,0.00
2023-03-30T01:35:34.497Z,0.00
2023-03-30T01:36:13.912Z,0.00
2023-03-30T01:36:34.118Z,0.00
2023-03-30T01:37:05.013Z,0.00
2023-03-30T01:37:36.192Z,0.00
2023-03-30T01:38:07.693Z,0.00
2023-03-30T01:38:39.404Z,0.00
2023-03-30T01:39:08.402Z,0.00
2023-03-30T01:39:41.227Z,0.00
2023-03-30T01:40:10.687Z,0.00
2023-03-30T01:40:41.485Z,0.00
2023-03-30T01:41:12.536Z,0.00
2023-03-30T01:41:43.856Z,0.00
2023-03-30T01:42:16.139Z,0.00
2023-03-30T01:42:45.682Z,0.00
2023-03-30T01:43:16.543Z,0.00
2023-03-30T01:43:48.021Z,0.00
2023-03-30T01:44:18.758Z,0.00
2023-03-30T01:44:49.496Z,0.00
2023-03-30T01:45:20.672Z,0.00
2023-03-30T01:45:52.733Z,0.00
2023-03-30T01:46:22.533Z,0.00
2023-03-30T01:46:53.463Z,0.00
2023-03-30T01:47:25.451Z,0.00
2023-03-30T01:47:55.651Z,0.00
2023-03-30T01:48:27.365Z,0.00
2023-03-30T01:48:57.926Z,0.00
2023-03-30T01:49:28.596Z,0.00
2023-03-30T01:49:59.417Z,0.00
2023-03-30T01:50:30.631Z,0.00
2023-03-30T01:51:02.123Z,0.00
2023-03-30T01:51:32.419Z,0.00
2023-03-30T01:52:20.550Z,0.00
2023-03-30T01:52:34.923Z,0.00
2023-03-30T01:53:06.261Z,0.00
2023-03-30T01:53:36.863Z,0.00
2023-03-30T01:54:07.731Z,0.00
2023-03-30T01:54:38.412Z,0.00
2023-03-30T01:55:09.650Z,0.00
2023-03-30T01:55:40.325Z,0.00
2023-03-30T01:56:11.383Z,0.00
2023-03-30T01:56:42.381Z,0.00
2023-03-30T01:57:13.477Z,0.00
2023-03-30T01:57:45.985Z,0.00
2023-03-30T01:58:15.828Z,0.00
2023-03-30T01:58:46.886Z,0.00
2023-03-30T01:59:17.696Z,0.00
2023-03-30T01:59:48.668Z,0.00
2023-03-30T02:00:23.462Z,0.00
2023-03-30T02:02:43.293Z,0.00
2023-03-30T02:02:55.993Z,0.00
2023-03-30T02:03:27.126Z,0.00
2023-03-30T02:03:56.897Z,0.00
2023-03-30T02:04:27.667Z,0.00
2023-03-30T02:04:58.305Z,0.00
2023-03-30T02:05:29.145Z,0.00
2023-03-30T02:06:00.188Z,0.00
2023-03-30T02:06:32.662Z,0.00
2023-03-30T02:07:02.225Z,0.00
2023-03-30T02:07:33.652Z,0.00
2023-03-30T02:08:05.682Z,0.00
2023-03-30T02:08:36.319Z,0.00
2023-03-30T02:09:07.121Z,0.00
2023-03-30T02:09:37.603Z,0.00
2023-03-30T02:10:15.040Z,0.00
2023-03-30T02:11:24.964Z,0.00
2023-03-30T02:11:41.412Z,0.00
2023-03-30T02:12:13.309Z,0.00
2023-03-30T02:12:43.298Z,0.00
2023-03-30T02:13:15.817Z,0.00
2023-03-30T02:13:46.211Z,0.00
2023-03-30T02:14:17.196Z,0.00
2023-03-30T02:14:47.686Z,0.00
2023-03-30T02:15:19.811Z,0.00
2023-03-30T02:15:49.504Z,0.00
2023-03-30T02:16:20.710Z,0.00
2023-03-30T02:16:51.256Z,0.00
2023-03-30T02:17:22.389Z,0.00
2023-03-30T02:17:53.959Z,0.00
2023-03-30T02:18:25.456Z,0.00
2023-03-30T02:18:56.090Z,0.00
2023-03-30T02:19:26.777Z,0.00
2023-03-30T02:19:57.663Z,0.00
2023-03-30T02:20:29.675Z,0.00
2023-03-30T02:20:59.237Z,0.00
2023-03-30T02:21:30.734Z,0.00
2023-03-30T02:22:01.759Z,0.00
2023-03-30T02:22:32.709Z,0.00
2023-03-30T02:23:03.575Z,0.00
2023-03-30T02:23:37.188Z,0.00
2023-03-30T02:24:06.692Z,0.00
2023-03-30T02:24:37.164Z,0.00
2023-03-30T02:25:08.184Z,0.00
2023-03-30T02:25:38.789Z,0.00
2023-03-30T02:26:09.749Z,0.00
2023-03-30T02:26:41.685Z,0.00
2023-03-30T02:27:11.571Z,0.00
2023-03-30T02:27:42.655Z,0.00
2023-03-30T02:28:13.807Z,0.00
2023-03-30T02:28:45.463Z,0.00
2023-03-30T02:29:16.589Z,0.00
2023-03-30T02:29:46.652Z,0.00
2023-03-30T02:30:19.945Z,0.00
2023-03-30T02:30:51.381Z,0.00
2023-03-30T02:31:19.610Z,0.00
2023-03-30T02:31:50.925Z,0.00
2023-03-30T02:32:21.733Z,0.00
2023-03-30T02:32:52.592Z,0.00
2023-03-30T02:33:32.335Z,0.00
2023-03-30T02:33:55.990Z,0.00
2023-03-30T02:34:26.636Z,0.00
2023-03-30T02:34:57.118Z,0.00
2023-03-30T02:35:28.001Z,0.00
2023-03-30T02:35:58.518Z,0.00
2023-03-30T02:36:29.349Z,0.00
2023-03-30T02:37:00.560Z,0.00
2023-03-30T02:37:31.669Z,0.00
2023-03-30T02:38:02.938Z,0.00
2023-03-30T02:38:33.761Z,0.00
2023-03-30T02:39:05.259Z,0.00
2023-03-30T02:39:36.365Z,0.00
2023-03-30T02:40:07.626Z,0.00
2023-03-30T02:40:37.911Z,0.00
2023-03-30T02:41:08.743Z,0.00
2023-03-30T02:41:39.963Z,0.00
2023-03-30T02:42:10.609Z,0.00
2023-03-30T02:42:42.446Z,0.00
2023-03-30T02:43:12.900Z,0.00
2023-03-30T02:43:43.537Z,0.00
2023-03-30T02:44:15.636Z,0.00
2023-03-30T02:44:46.416Z,0.00
2023-03-30T02:45:17.862Z,0.00
2023-03-30T02:45:47.867Z,0.00
2023-03-30T02:46:18.490Z,0.00
2023-03-30T02:46:49.320Z,0.00
2023-03-30T02:47:20.690Z,0.00
2023-03-30T02:47:51.667Z,0.00
2023-03-30T02:48:22.859Z,0.00
2023-03-30T02:48:53.933Z,0.00
2023-03-30T02:49:26.105Z,0.00
2023-03-30T02:49:56.262Z,0.00
2023-03-30T02:50:27.174Z,0.00
2023-03-30T02:50:57.859Z,0.00
2023-03-30T02:51:28.526Z,0.00
2023-03-30T02:51:59.396Z,0.00
2023-03-30T02:52:30.842Z,0.00
2023-03-30T02:53:01.827Z,0.00
2023-03-30T02:53:33.082Z,0.00
2023-03-30T02:54:29.707Z,0.00
2023-03-30T02:54:36.177Z,0.00
2023-03-30T02:55:07.230Z,0.00
2023-03-30T02:55:37.275Z,0.00
2023-03-30T02:56:07.865Z,0.00
2023-03-30T02:56:46.551Z,0.00
2023-03-30T02:57:09.775Z,0.00
2023-03-30T02:57:40.671Z,0.00
2023-03-30T02:58:12.115Z,0.00
2023-03-30T02:58:42.644Z,0.00
2023-03-30T02:59:13.688Z,0.00
2023-03-30T02:59:45.332Z,0.00
2023-03-30T03:00:19.024Z,0.00
2023-03-30T03:00:47.159Z,0.00
2023-03-30T03:01:18.088Z,0.00
2023-03-30T03:01:49.846Z,0.00
2023-03-30T03:02:21.517Z,0.00
2023-03-30T03:02:54.575Z,0.00
2023-03-30T03:03:21.733Z,0.00
2023-03-30T03:03:52.864Z,0.00
2023-03-30T03:04:41.070Z,0.00
2023-03-30T03:04:55.621Z,0.00
2023-03-30T03:05:25.746Z,0.00
2023-03-30T03:05:57.750Z,0.00
2023-03-30T03:06:28.295Z,0.00
2023-03-30T03:07:29.768Z,0.00
2023-03-30T03:08:00.822Z,0.00
2023-03-30T03:08:31.816Z,0.00
2023-03-30T03:09:02.683Z,0.00
2023-03-30T03:09:34.743Z,0.00
2023-03-30T03:10:05.545Z,0.00
2023-03-30T03:10:36.739Z,0.00
2023-03-30T03:11:07.809Z,0.00
2023-03-30T03:11:38.242Z,0.00
2023-03-30T03:12:08.776Z,0.00
2023-03-30T03:12:57.623Z,0.00
2023-03-30T03:13:11.614Z,0.00
2023-03-30T03:13:41.748Z,0.00
2023-03-30T03:14:14.282Z,0.00
2023-03-30T03:14:43.957Z,0.00
2023-03-30T03:15:15.925Z,0.00
2023-03-30T03:15:46.469Z,0.00
2023-03-30T03:16:18.203Z,0.00
2023-03-30T03:16:48.233Z,0.00
2023-03-30T03:17:19.038Z,0.00
2023-03-30T03:17:49.717Z,0.00
2023-03-30T03:18:20.772Z,0.00
2023-03-30T03:18:51.655Z,0.00
2023-03-30T03:19:23.020Z,0.00
2023-03-30T03:19:53.762Z,0.00
2023-03-30T03:20:27.243Z,0.00
2023-03-30T03:20:55.607Z,0.00
2023-03-30T03:21:27.524Z,0.00
2023-03-30T03:21:58.690Z,0.00
2023-03-30T03:22:28.979Z,0.00
2023-03-30T03:22:59.767Z,0.00
2023-03-30T03:23:30.881Z,0.00
2023-03-30T03:24:02.231Z,0.00
2023-03-30T03:24:32.674Z,0.00
2023-03-30T03:25:03.997Z,0.00
2023-03-30T03:25:34.945Z,0.00
2023-03-30T03:26:06.225Z,0.00
2023-03-30T03:26:37.601Z,0.00
2023-03-30T03:27:08.643Z,0.00
2023-03-30T03:28:09.888Z,0.00
2023-03-30T03:28:40.906Z,0.00
2023-03-30T03:29:11.755Z,0.00
2023-03-30T03:29:42.790Z,0.00
2023-03-30T03:30:14.578Z,0.00
2023-03-30T03:30:48.110Z,0.00
2023-03-30T03:31:16.476Z,0.00
2023-03-30T03:31:47.626Z,0.00
2023-03-30T03:32:18.835Z,0.00
2023-03-30T03:32:49.050Z,0.00
2023-03-30T03:33:19.816Z,0.00
2023-03-30T03:33:50.896Z,0.00
2023-03-30T03:34:21.748Z,0.00
2023-03-30T03:34:53.064Z,0.00
2023-03-30T03:35:24.194Z,0.00
2023-03-30T03:35:54.934Z,0.00
2023-03-30T03:36:27.060Z,0.00
2023-03-30T03:36:58.089Z,0.00
2023-03-30T03:37:28.475Z,0.00
2023-03-30T03:37:58.882Z,0.00
2023-03-30T03:38:29.790Z,0.00
2023-03-30T03:39:01.083Z,0.00
2023-03-30T03:39:31.675Z,0.00
2023-03-30T03:40:03.005Z,0.00
2023-03-30T03:40:33.968Z,0.00
2023-03-30T03:41:05.324Z,0.00
2023-03-30T03:41:36.178Z,0.00
2023-03-30T03:42:08.068Z,0.00
2023-03-30T03:42:38.923Z,0.00
2023-03-30T03:43:09.154Z,0.00
2023-03-30T03:43:39.766Z,0.00
2023-03-30T03:44:10.989Z,0.00
2023-03-30T03:44:43.612Z,0.00
2023-03-30T03:45:12.952Z,0.00
2023-03-30T03:45:45.229Z,0.00
2023-03-30T03:46:14.921Z,0.00
2023-03-30T03:47:02.325Z,0.00
2023-03-30T03:47:17.345Z,0.00
2023-03-30T03:47:48.546Z,0.00
2023-03-30T03:48:19.066Z,0.00
2023-03-30T03:48:49.764Z,0.00
2023-03-30T03:49:21.007Z,0.00
2023-03-30T03:49:51.844Z,0.00
2023-03-30T03:50:23.121Z,0.00
2023-03-30T03:50:54.315Z,0.00
2023-03-30T03:51:25.148Z,0.00
2023-03-30T03:51:56.379Z,0.00
2023-03-30T03:52:27.506Z,0.00
2023-03-30T03:52:58.874Z,0.00
2023-03-30T03:53:28.946Z,0.00
2023-03-30T03:53:59.968Z,0.00
2023-03-30T03:54:30.914Z,0.00
2023-03-30T03:55:02.271Z,0.00
2023-03-30T03:55:33.066Z,0.00
2023-03-30T03:56:03.892Z,0.00
2023-03-30T03:56:35.296Z,0.00
2023-03-30T03:57:06.113Z,0.00
2023-03-30T03:57:37.449Z,0.00
2023-03-30T03:58:39.210Z,0.00
2023-03-30T03:59:15.418Z,0.00
2023-03-30T03:59:41.002Z,0.00
2023-03-30T04:00:12.436Z,0.00
2023-03-30T04:00:43.623Z,0.00
2023-03-30T04:01:14.402Z,0.00
2023-03-30T04:01:45.055Z,0.00
2023-03-30T04:02:16.167Z,0.00
2023-03-30T04:02:47.343Z,0.00
2023-03-30T04:03:19.667Z,0.00
2023-03-30T04:03:48.955Z,0.00
2023-03-30T04:04:19.939Z,0.00
2023-03-30T04:04:50.949Z,0.00
2023-03-30T04:05:22.003Z,0.00
2023-03-30T04:05:53.158Z,0.00
2023-03-30T04:06:24.078Z,0.00
2023-03-30T04:06:55.278Z,0.00
2023-03-30T04:07:25.762Z,0.00
2023-03-30T04:07:57.615Z,0.00
2023-03-30T04:08:29.035Z,0.00
2023-03-30T04:08:59.110Z,0.00
2023-03-30T04:09:29.960Z,0.00
2023-03-30T04:10:02.079Z,0.00
2023-03-30T04:10:32.207Z,0.00
2023-03-30T04:11:03.392Z,0.00
2023-03-30T04:11:34.002Z,0.00
2023-03-30T04:12:05.371Z,0.00
2023-03-30T04:12:35.921Z,0.00
2023-03-30T04:13:07.298Z,0.00
2023-03-30T04:13:38.390Z,0.00
2023-03-30T04:14:08.981Z,0.00
2023-03-30T04:14:39.922Z,0.00
2023-03-30T04:15:11.355Z,0.00
2023-03-30T04:15:41.941Z,0.00
2023-03-30T04:16:13.772Z,0.00
2023-03-30T04:16:44.885Z,0.00
2023-03-30T04:17:15.878Z,0.00
2023-03-30T04:17:47.363Z,0.00
2023-03-30T04:18:17.591Z,0.00
2023-03-30T04:18:48.122Z,0.00
2023-03-30T04:19:19.045Z,0.00
2023-03-30T04:19:50.223Z,0.00
2023-03-30T04:20:20.833Z,0.00
2023-03-30T04:20:51.949Z,0.00
2023-03-30T04:21:23.166Z,0.00
2023-03-30T04:21:54.342Z,0.00
2023-03-30T04:22:25.291Z,0.00
2023-03-30T04:22:56.251Z,0.00
2023-03-30T04:23:27.629Z,0.00
2023-03-30T04:23:58.480Z,0.00
2023-03-30T04:24:29.215Z,0.00
2023-03-30T04:25:00.109Z,0.00
2023-03-30T04:25:31.026Z,0.00
2023-03-30T04:26:02.224Z,0.00
2023-03-30T04:26:33.087Z,0.00
2023-03-30T04:27:04.247Z,0.00
2023-03-30T04:27:35.200Z,0.00
2023-03-30T04:28:06.552Z,0.00
2023-03-30T04:29:09.027Z,0.00
2023-03-30T04:29:39.506Z,0.00
2023-03-30T04:30:12.070Z,0.00
2023-03-30T04:30:41.681Z,0.00
2023-03-30T04:31:11.888Z,0.00
2023-03-30T04:31:43.124Z,0.00
2023-03-30T04:32:14.379Z,0.00
2023-03-30T04:32:45.587Z,0.00
2023-03-30T04:33:17.083Z,0.00
2023-03-30T04:33:48.965Z,0.00
2023-03-30T04:34:18.798Z,0.00
2023-03-30T04:34:49.378Z,0.00
2023-03-30T04:35:20.289Z,0.00
2023-03-30T04:35:51.162Z,0.00
2023-03-30T04:36:22.057Z,0.00
2023-03-30T04:36:53.123Z,0.00
2023-03-30T04:37:41.153Z,0.00
2023-03-30T04:37:55.341Z,0.00
2023-03-30T04:38:26.745Z,0.00
2023-03-30T04:38:57.686Z,0.00
2023-03-30T04:39:59.512Z,0.00
2023-03-30T04:40:30.421Z,0.00
2023-03-30T04:41:01.612Z,0.00
2023-03-30T04:41:32.219Z,0.00
2023-03-30T04:42:03.227Z,0.00
2023-03-30T04:42:34.358Z,0.00
2023-03-30T04:43:05.025Z,0.00
2023-03-30T04:43:36.562Z,0.00
2023-03-30T04:44:07.550Z,0.00
2023-03-30T04:44:38.675Z,0.00
2023-03-30T04:45:10.524Z,0.00
2023-03-30T04:46:11.271Z,0.00
2023-03-30T04:46:42.184Z,0.00
2023-03-30T04:47:13.069Z,0.00
2023-03-30T04:47:44.731Z,0.00
2023-03-30T04:48:15.234Z,0.00
2023-03-30T04:48:45.872Z,0.00
2023-03-30T04:49:17.887Z,0.00
2023-03-30T04:49:48.342Z,0.00
2023-03-30T04:50:19.629Z,0.00
2023-03-30T04:50:50.099Z,0.00
2023-03-30T04:51:21.135Z,0.00
2023-03-30T04:51:52.220Z,0.00
2023-03-30T04:52:23.321Z,0.00
2023-03-30T04:52:54.200Z,0.00
2023-03-30T04:53:25.562Z,0.00
2023-03-30T04:53:56.460Z,0.00
2023-03-30T04:54:27.241Z,0.00
2023-03-30T04:54:58.323Z,0.00
2023-03-30T04:55:29.147Z,0.00
2023-03-30T04:56:00.552Z,0.00
2023-03-30T04:56:31.138Z,0.00
2023-03-30T04:57:02.924Z,0.00
2023-03-30T04:57:33.183Z,0.00
2023-03-30T04:58:04.469Z,0.00
2023-03-30T04:58:35.297Z,0.00
2023-03-30T04:59:07.176Z,0.00
2023-03-30T04:59:37.593Z,0.00
2023-03-30T05:00:08.770Z,0.00
2023-03-30T05:00:39.419Z,0.00
2023-03-30T05:01:14.707Z,0.00
2023-03-30T05:01:41.232Z,0.00
2023-03-30T05:02:12.237Z,0.00
2023-03-30T05:02:43.434Z,0.00
2023-03-30T05:03:14.497Z,0.00
2023-03-30T05:03:46.305Z,0.00
2023-03-30T05:04:16.974Z,0.00
2023-03-30T05:04:47.771Z,0.00
2023-03-30T05:05:19.603Z,0.00
2023-03-30T05:06:07.416Z,0.00
2023-03-30T05:06:20.322Z,0.00
2023-03-30T05:06:51.288Z,0.00
2023-03-30T05:07:22.017Z,0.00
2023-03-30T05:07:53.465Z,0.36
2023-03-30T05:08:24.716Z,0.00
2023-03-30T05:08:55.563Z,0.00
2023-03-30T05:09:27.180Z,0.00
2023-03-30T05:09:57.935Z,0.85
2023-03-30T05:10:28.697Z,0.36
2023-03-30T05:10:59.460Z,1.71
2023-03-30T05:11:30.257Z,0.85
2023-03-30T05:12:01.621Z,1.22
2023-03-30T05:12:32.335Z,1.71
2023-03-30T05:13:03.414Z,0.85
2023-03-30T05:13:34.821Z,1.22
2023-03-30T05:14:05.394Z,2.57
2023-03-30T05:14:53.673Z,1.22
2023-03-30T05:15:08.285Z,1.22
2023-03-30T05:15:42.676Z,2.57
2023-03-30T05:16:09.400Z,1.71
2023-03-30T05:16:40.098Z,3.43
2023-03-30T05:17:11.561Z,2.94
2023-03-30T05:17:42.330Z,2.94
2023-03-30T05:18:15.130Z,3.79
2023-03-30T05:18:44.618Z,4.77
2023-03-30T05:19:16.295Z,4.77
2023-03-30T05:19:46.736Z,5.14
2023-03-30T05:20:20.348Z,5.63
2023-03-30T05:20:48.431Z,5.99
2023-03-30T05:21:19.754Z,5.99
2023-03-30T05:21:50.316Z,6.48
2023-03-30T05:22:21.316Z,7.34
2023-03-30T05:22:52.239Z,7.34
2023-03-30T05:23:28.052Z,7.70
2023-03-30T05:24:11.655Z,8.19
2023-03-30T05:24:25.504Z,8.19
2023-03-30T05:24:56.981Z,9.05
2023-03-30T05:25:28.195Z,8.56
2023-03-30T05:25:58.862Z,9.54
2023-03-30T05:26:29.602Z,8.56
2023-03-30T05:27:31.162Z,9.91
2023-03-30T05:28:02.443Z,9.91
2023-03-30T05:28:33.377Z,10.39
2023-03-30T05:29:04.338Z,10.77
2023-03-30T05:29:35.338Z,10.39
2023-03-30T05:30:06.983Z,10.39
2023-03-30T05:30:45.792Z,10.39
2023-03-30T05:31:09.037Z,9.91
2023-03-30T05:31:40.934Z,9.91
2023-03-30T05:32:10.660Z,10.39
2023-03-30T05:32:41.591Z,10.77
2023-03-30T05:33:12.600Z,10.77
2023-03-30T05:33:43.973Z,11.25
2023-03-30T05:34:17.677Z,10.77
2023-03-30T05:34:45.640Z,11.62
2023-03-30T05:35:16.472Z,11.25
2023-03-30T05:35:49.937Z,12.11
2023-03-30T05:36:19.076Z,12.11
2023-03-30T05:36:50.087Z,12.48
2023-03-30T05:37:21.387Z,12.48
2023-03-30T05:37:51.763Z,12.97
2023-03-30T05:38:22.338Z,12.97
2023-03-30T05:38:53.249Z,13.82
2023-03-30T05:39:24.435Z,12.11
2023-03-30T05:39:55.291Z,13.33
2023-03-30T05:40:26.823Z,12.97
2023-03-30T05:40:57.426Z,13.82
2023-03-30T05:41:29.225Z,13.33
2023-03-30T05:42:00.384Z,13.33
2023-03-30T05:42:31.392Z,12.48
2023-03-30T05:43:01.879Z,12.48
2023-03-30T05:43:32.455Z,12.97
2023-03-30T05:44:03.236Z,13.33
2023-03-30T05:44:34.460Z,12.97
2023-03-30T05:45:05.969Z,12.97
2023-03-30T05:45:36.701Z,13.33
2023-03-30T05:46:07.752Z,13.82
2023-03-30T05:46:38.472Z,13.33
2023-03-30T05:47:10.099Z,14.31
2023-03-30T05:47:40.791Z,13.82
2023-03-30T05:48:12.739Z,13.82
2023-03-30T05:48:42.408Z,14.68
2023-03-30T05:49:13.263Z,16.39
2023-03-30T05:49:44.233Z,15.53
2023-03-30T05:50:16.179Z,16.02
2023-03-30T05:50:46.944Z,16.39
2023-03-30T05:51:17.591Z,18.11
2023-03-30T05:51:51.792Z,17.73
2023-03-30T05:52:20.308Z,18.60
2023-03-30T05:52:51.077Z,20.31
2023-03-30T05:53:21.878Z,22.51
2023-03-30T05:53:52.943Z,23.36
2023-03-30T05:54:23.535Z,24.22
2023-03-30T05:54:54.474Z,26.42
2023-03-30T05:55:25.763Z,27.65
2023-03-30T05:55:56.736Z,30.34
2023-03-30T05:56:27.549Z,30.34
2023-03-30T05:56:58.813Z,32.05
2023-03-30T05:57:30.664Z,34.25
2023-03-30T05:58:01.170Z,36.82
2023-03-30T05:58:32.144Z,38.53
2023-03-30T05:59:02.592Z,38.53
2023-03-30T05:59:33.428Z,41.10
2023-03-30T06:00:04.902Z,41.96
2023-03-30T06:00:37.089Z,42.94
2023-03-30T06:01:06.831Z,45.02
2023-03-30T06:01:37.577Z,45.51
2023-03-30T06:02:10.340Z,45.02
2023-03-30T06:03:10.684Z,46.36
2023-03-30T06:03:41.612Z,46.73
2023-03-30T06:04:12.940Z,48.56
2023-03-30T06:04:46.095Z,48.07
2023-03-30T06:05:14.343Z,50.28
2023-03-30T06:05:46.216Z,51.14
2023-03-30T06:06:16.400Z,51.50
2023-03-30T06:06:47.891Z,53.34
2023-03-30T06:07:30.853Z,55.90
2023-03-30T06:07:50.074Z,58.11
2023-03-30T06:08:22.805Z,61.17
2023-03-30T06:08:51.483Z,68.02
2023-03-30T06:09:22.890Z,68.51
2023-03-30T06:09:54.624Z,71.93
2023-03-30T06:10:27.170Z,73.65
2023-03-30T06:10:58.445Z,74.50
2023-03-30T06:11:27.700Z,75.85
2023-03-30T06:11:57.492Z,81.10
2023-03-30T06:12:29.913Z,81.48
2023-03-30T06:13:00.266Z,81.97
2023-03-30T06:13:31.279Z,82.82
2023-03-30T06:14:18.795Z,83.19
2023-03-30T06:14:32.818Z,83.19
2023-03-30T06:15:21.588Z,84.04
2023-03-30T06:15:52.587Z,84.04
2023-03-30T06:16:05.873Z,85.02
2023-03-30T06:16:36.541Z,82.82
2023-03-30T06:17:07.561Z,79.76
2023-03-30T06:17:38.300Z,76.70
2023-03-30T06:18:10.591Z,75.48
2023-03-30T06:18:41.439Z,73.65
2023-03-30T06:19:43.765Z,68.02
2023-03-30T06:20:14.076Z,66.80
2023-03-30T06:20:44.757Z,68.02
2023-03-30T06:21:15.523Z,68.51
2023-03-30T06:21:46.606Z,69.73
2023-03-30T06:22:18.178Z,70.71
2023-03-30T06:22:48.536Z,74.50
2023-03-30T06:23:23.756Z,74.99
2023-03-30T06:23:51.673Z,78.41
2023-03-30T06:24:40.724Z,74.99
2023-03-30T06:24:52.590Z,73.65
2023-03-30T06:25:27.045Z,74.14
2023-03-30T06:25:54.329Z,76.34
2023-03-30T06:26:26.117Z,76.70
2023-03-30T06:26:56.920Z,79.76
2023-03-30T06:27:27.770Z,82.82
2023-03-30T06:27:58.569Z,83.68
2023-03-30T06:28:30.942Z,87.96
2023-03-30T06:29:01.804Z,91.02
2023-03-30T06:29:32.739Z,92.36
2023-03-30T06:30:04.026Z,100.19
2023-03-30T06:30:33.634Z,105.33
2023-03-30T06:31:05.320Z,110.10
2023-03-30T06:31:36.032Z,111.44
2023-03-30T06:32:23.984Z,114.87
2023-03-30T06:32:38.048Z,120.99
2023-03-30T06:33:09.301Z,122.34
2023-03-30T06:33:42.074Z,122.70
2023-03-30T06:34:12.105Z,120.50
2023-03-30T06:34:42.245Z,122.34
2023-03-30T06:35:13.498Z,122.70
2023-03-30T06:35:43.810Z,120.13
2023-03-30T06:36:15.100Z,116.58
2023-03-30T06:36:46.220Z,116.22
2023-03-30T06:37:17.109Z,112.67
2023-03-30T06:37:47.942Z,113.16
2023-03-30T06:38:18.572Z,106.19
2023-03-30T06:38:50.329Z,106.68
2023-03-30T06:39:21.490Z,104.96
2023-03-30T06:39:51.954Z,109.24
2023-03-30T06:40:22.901Z,109.73
2023-03-30T06:40:53.651Z,104.10
2023-03-30T06:41:24.425Z,102.27
2023-03-30T06:41:55.786Z,106.19
2023-03-30T06:42:27.002Z,107.90
2023-03-30T06:42:57.916Z,107.90
2023-03-30T06:43:28.838Z,105.82
2023-03-30T06:44:00.016Z,101.41
2023-03-30T06:44:31.503Z,101.41
2023-03-30T06:45:03.054Z,100.56
2023-03-30T06:45:32.869Z,97.99
2023-03-30T06:46:03.948Z,97.50
2023-03-30T06:46:34.778Z,97.13
2023-03-30T06:47:06.481Z,97.13
2023-03-30T06:47:36.727Z,100.56
2023-03-30T06:48:08.068Z,104.96
2023-03-30T06:48:38.737Z,110.96
2023-03-30T06:49:10.659Z,117.93
2023-03-30T06:49:41.933Z,120.50
2023-03-30T06:50:12.901Z,126.12
2023-03-30T06:50:43.024Z,129.19
2023-03-30T06:51:14.166Z,130.90
2023-03-30T06:51:44.790Z,130.90
2023-03-30T06:52:15.925Z,130.90
2023-03-30T06:52:47.112Z,130.04
2023-03-30T06:53:17.800Z,127.47
2023-03-30T06:53:49.342Z,123.56
2023-03-30T06:54:20.847Z,121.85
2023-03-30T06:54:51.866Z,118.78
2023-03-30T06:55:21.927Z,114.87
2023-03-30T06:55:53.018Z,110.96
2023-03-30T06:56:24.004Z,105.82
2023-03-30T06:56:55.092Z,103.13
2023-03-30T06:57:43.201Z,96.65
2023-03-30T06:57:56.968Z,95.42
2023-03-30T06:58:27.816Z,91.87
2023-03-30T06:58:58.680Z,88.45
2023-03-30T06:59:30.601Z,86.24
2023-03-30T07:00:02.900Z,84.04
2023-03-30T07:00:32.343Z,82.33